createdAt,value
2023-03-23T15:58:15.695Z,3.97
2023-03-23T16:00:44.487Z,3.80
2023-03-23T16:03:21.345Z,3.70
2023-03-23T16:05:48.446Z,4.17
2023-03-23T16:08:16.670Z,4.20
2023-03-23T16:10:44.553Z,4.10
2023-03-23T16:13:11.780Z,3.93
2023-03-23T16:15:38.708Z,4.10
2023-03-23T16:18:06.827Z,4.03
2023-03-23T16:20:34.306Z,4.40
2023-03-23T16:23:01.547Z,5.00
2023-03-23T16:25:29.817Z,4.87
2023-03-23T16:27:57.161Z,4.40
2023-03-23T16:30:26.465Z,4.57
2023-03-23T16:32:55.539Z,4.90
2023-03-23T16:35:24.787Z,4.83
2023-03-23T16:38:07.015Z,4.77
2023-03-23T16:40:34.825Z,5.07
2023-03-23T16:43:01.788Z,5.03
2023-03-23T16:45:36.297Z,5.10
2023-03-23T16:48:04.433Z,5.20
2023-03-23T16:50:32.033Z,5.00
2023-03-23T16:53:00.499Z,6.13
2023-03-23T16:55:28.540Z,5.70
2023-03-23T16:58:05.201Z,5.50
2023-03-23T17:00:41.742Z,4.93
2023-03-23T17:03:09.102Z,5.07
2023-03-23T17:05:37.790Z,4.70
2023-03-23T17:08:06.031Z,4.60
2023-03-23T17:10:33.892Z,5.47
2023-03-23T17:13:01.104Z,5.30
2023-03-23T17:15:28.640Z,4.80
2023-03-23T17:17:55.758Z,5.30
2023-03-23T17:20:23.586Z,5.07
2023-03-23T17:22:51.107Z,5.77
2023-03-23T17:25:18.622Z,5.87
2023-03-23T17:27:46.229Z,5.50
2023-03-23T17:30:13.662Z,7.50
2023-03-23T17:32:41.023Z,7.57
2023-03-23T17:35:08.529Z,10.90
2023-03-23T17:37:37.821Z,12.03
2023-03-23T17:40:08.534Z,11.03
2023-03-23T17:42:36.606Z,11.20
2023-03-23T17:45:06.480Z,11.07
2023-03-23T17:47:34.212Z,10.93
2023-03-23T17:50:11.547Z,10.80
2023-03-23T17:52:41.669Z,11.30
2023-03-23T17:55:09.890Z,11.47
2023-03-23T17:57:38.505Z,10.53
2023-03-23T18:00:09.208Z,10.40
2023-03-23T18:02:37.852Z,9.97
2023-03-23T18:05:06.623Z,9.20
2023-03-23T18:07:34.366Z,9.07
2023-03-23T18:10:02.146Z,10.00
2023-03-23T18:12:29.822Z,8.93
2023-03-23T18:14:58.656Z,8.23
2023-03-23T18:17:26.614Z,8.00
2023-03-23T18:24:24.325Z,7.40
2023-03-23T18:28:09.771Z,6.90
2023-03-23T18:31:09.125Z,6.63
2023-03-23T18:33:38.716Z,6.53
2023-03-23T18:36:08.034Z,7.30
2023-03-23T18:38:38.831Z,9.37
2023-03-23T18:41:11.572Z,11.00
2023-03-23T18:43:41.325Z,9.00
2023-03-23T18:46:10.345Z,8.07
2023-03-23T18:48:44.020Z,12.40
2023-03-23T18:51:14.957Z,12.53
2023-03-23T18:53:44.153Z,13.43
2023-03-23T18:56:25.790Z,12.50
2023-03-23T18:58:54.831Z,11.43
2023-03-23T19:01:30.403Z,9.03
2023-03-23T19:04:02.635Z,7.67
2023-03-23T19:06:36.906Z,7.00
2023-03-23T19:09:07.839Z,7.07
2023-03-23T19:11:41.151Z,6.60
2023-03-23T19:14:13.239Z,7.00
2023-03-23T19:16:42.854Z,6.93
2023-03-23T19:19:15.386Z,8.27
2023-03-23T19:21:46.997Z,7.00
2023-03-23T19:24:18.097Z,7.10
2023-03-23T19:26:53.200Z,7.00
2023-03-23T19:29:27.137Z,6.63
2023-03-23T19:32:03.113Z,6.57
2023-03-23T19:34:34.813Z,6.40
2023-03-23T19:37:13.225Z,7.00
2023-03-23T19:39:47.655Z,7.13
2023-03-23T19:42:21.893Z,7.77
2023-03-23T19:44:51.403Z,7.87
2023-03-23T19:47:24.954Z,8.00
2023-03-23T19:50:01.002Z,7.93
2023-03-23T19:52:31.173Z,7.50
2023-03-23T19:55:04.621Z,7.67
2023-03-23T19:57:35.192Z,7.27
2023-03-23T20:00:09.745Z,7.27
2023-03-23T20:02:42.217Z,7.13
2023-03-23T20:05:14.487Z,6.90
2023-03-23T20:07:51.421Z,6.30
2023-03-23T20:10:23.539Z,7.07
2023-03-23T20:12:55.319Z,7.50
2023-03-23T20:15:25.160Z,7.40
2023-03-23T20:17:57.777Z,7.90
2023-03-23T20:20:33.453Z,8.57
2023-03-23T20:23:08.446Z,8.23
2023-03-23T20:25:40.743Z,7.97
2023-03-23T20:28:16.760Z,8.67
2023-03-23T20:31:19.964Z,8.10
2023-03-23T20:33:39.865Z,7.60
2023-03-23T20:36:22.172Z,7.77
2023-03-23T20:38:52.792Z,8.47
2023-03-23T20:41:26.530Z,7.80
2023-03-23T20:43:56.121Z,8.17
2023-03-23T20:46:27.200Z,7.80
2023-03-23T20:49:03.975Z,8.30
2023-03-23T20:51:33.975Z,8.40
2023-03-23T20:54:06.192Z,8.27
2023-03-23T20:56:41.968Z,7.80
2023-03-23T20:59:12.551Z,7.87
2023-03-23T21:01:41.084Z,7.67
2023-03-23T21:04:15.756Z,8.27
2023-03-23T21:06:46.017Z,7.63
2023-03-23T21:09:14.613Z,7.47
2023-03-23T21:11:46.907Z,8.40
2023-03-23T21:14:23.250Z,8.97
2023-03-23T21:16:51.855Z,8.67
2023-03-23T21:19:22.226Z,9.60
2023-03-23T21:21:55.581Z,8.90
2023-03-23T21:24:30.284Z,8.63
2023-03-23T21:27:05.203Z,8.83
2023-03-23T21:29:33.745Z,8.20
2023-03-23T21:32:08.409Z,7.43
2023-03-23T21:34:37.355Z,7.67
2023-03-23T21:37:10.439Z,7.33
2023-03-23T21:39:41.500Z,7.13
2023-03-23T21:42:16.671Z,7.43
2023-03-23T21:44:44.451Z,7.43
2023-03-23T21:47:16.197Z,7.87
2023-03-23T21:49:46.060Z,8.20
2023-03-23T21:52:14.732Z,8.80
2023-03-23T21:54:45.018Z,9.13
2023-03-23T21:57:13.736Z,9.67
2023-03-23T21:59:41.950Z,8.77
2023-03-23T22:02:16.516Z,8.30
2023-03-23T22:04:45.019Z,8.87
2023-03-23T22:07:14.671Z,9.23
2023-03-23T22:09:45.383Z,8.57
2023-03-23T22:12:13.893Z,8.00
2023-03-23T22:14:44.915Z,8.63
2023-03-23T22:17:13.438Z,7.90
2023-03-23T22:19:45.399Z,8.63
2023-03-23T22:22:16.447Z,8.10
2023-03-23T22:24:44.439Z,8.27
2023-03-23T22:27:13.842Z,7.30
2023-03-23T22:29:41.104Z,7.30
2023-03-23T22:32:10.815Z,7.60
2023-03-23T22:34:38.012Z,7.17
2023-03-23T22:37:07.987Z,7.30
2023-03-23T22:39:35.400Z,7.30
2023-03-23T22:42:04.858Z,7.47
2023-03-23T22:44:33.088Z,7.43
2023-03-23T22:47:03.707Z,7.10
2023-03-23T22:49:36.198Z,7.20
2023-03-23T22:52:05.806Z,7.13
2023-03-23T22:54:32.753Z,7.10
2023-03-23T22:57:01.587Z,7.53
2023-03-23T22:59:28.765Z,7.60
2023-03-23T23:01:57.951Z,7.60
2023-03-23T23:04:25.418Z,7.70
2023-03-23T23:07:03.210Z,7.90
2023-03-23T23:09:44.713Z,7.93
2023-03-23T23:12:13.986Z,7.77
2023-03-23T23:14:48.890Z,8.03
2023-03-23T23:17:16.363Z,8.30
2023-03-23T23:19:46.604Z,8.00
2023-03-23T23:22:19.423Z,7.67
2023-03-23T23:24:47.363Z,7.67
2023-03-23T23:27:14.623Z,8.10
2023-03-23T23:29:43.109Z,6.87
2023-03-23T23:32:13.782Z,7.53
2023-03-23T23:34:44.192Z,7.30
2023-03-23T23:37:11.300Z,7.47
2023-03-23T23:39:41.226Z,7.40
2023-03-23T23:42:10.229Z,7.60
2023-03-23T23:44:38.695Z,7.80
2023-03-23T23:47:06.572Z,7.70
2023-03-23T23:49:37.825Z,7.70
2023-03-23T23:52:08.715Z,9.00
2023-03-23T23:54:37.508Z,7.80
2023-03-23T23:57:06.232Z,8.00
2023-03-23T23:59:37.104Z,8.23
